Time;durP1;ratioP1;P1;durP2;ratioP2;P2;SDS_P1;SDS_P2;PMS_P1;PMS_P2;Temp;Humidity;BMP_temperature;BMP_pressure;BME280_temperature;BME280_humidity;BME280_pressure;Samples;Min_cycle;Max_cycle;Signal;HPM_P1;HPM_P2
2022/10/10 00:00:18;;;;;;;6.75;1.98;;;15.00;71.60;;;;;;5043025;28;20485;-71
2022/10/10 00:02:43;;;;;;;3.17;1.60;;;14.90;71.70;;;;;;5034942;28;20025;-71
2022/10/10 00:05:09;;;;;;;2.28;1.10;;;14.90;71.80;;;;;;5034629;28;20025;-71
2022/10/10 00:07:35;;;;;;;2.97;1.40;;;15.00;71.90;;;;;;5034504;28;20116;-71
2022/10/10 00:10:00;;;;;;;3.92;1.50;;;15.10;71.90;;;;;;5034726;28;20029;-71
2022/10/10 00:12:26;;;;;;;3.17;1.35;;;15.10;72.00;;;;;;5034088;28;20057;-71
2022/10/10 00:14:52;;;;;;;6.05;1.75;;;15.10;72.00;;;;;;5033445;28;20021;-71
2022/10/10 00:17:26;;;;;;;4.95;1.70;;;15.00;72.10;;;;;;5034467;28;20038;-71
2022/10/10 00:19:52;;;;;;;3.13;1.58;;;14.90;72.30;;;;;;5034353;28;20033;-71
2022/10/10 00:22:17;;;;;;;3.70;1.70;;;15.00;72.40;;;;;;5034387;28;20099;-71
2022/10/10 00:24:46;;;;;;;2.45;1.50;;;14.90;72.50;;;;;;5034448;28;20479;-71
2022/10/10 00:27:12;;;;;;;5.30;1.80;;;14.90;72.60;;;;;;5033783;28;20099;-71
2022/10/10 00:29:37;;;;;;;5.22;1.88;;;14.90;72.60;;;;;;5034418;28;20068;-71
2022/10/10 00:32:06;;;;;;;4.30;1.55;;;14.90;72.80;;;;;;5034224;28;20022;-71
2022/10/10 00:34:32;;;;;;;7.22;2.47;;;14.90;72.60;;;;;;5034048;28;20503;-71
2022/10/10 00:36:58;;;;;;;2.75;1.63;;;14.90;72.60;;;;;;5033982;28;20041;-71
2022/10/10 00:39:23;;;;;;;6.38;1.75;;;14.80;72.70;;;;;;5033673;28;20043;-71
2022/10/10 00:41:49;;;;;;;4.95;1.80;;;14.90;72.70;;;;;;5033764;28;20025;-71
2022/10/10 00:44:15;;;;;;;3.92;1.77;;;14.90;72.70;;;;;;5034033;28;20036;-71
2022/10/10 00:46:41;;;;;;;3.35;1.60;;;14.90;72.60;;;;;;5034058;28;20028;-71
2022/10/10 00:49:34;;;;;;;5.65;1.83;;;14.90;72.60;;;;;;5033730;28;20423;-71
2022/10/10 00:52:00;;;;;;;3.58;1.65;;;14.80;72.70;;;;;;5032294;28;20533;-71
2022/10/10 00:54:27;;;;;;;5.18;1.40;;;14.80;72.80;;;;;;5037733;28;20064;-70
2022/10/10 00:57:04;;;;;;;3.22;1.58;;;14.90;72.80;;;;;;5041008;28;20084;-70
2022/10/10 00:59:32;;;;;;;5.13;1.77;;;14.90;72.60;;;;;;5034010;28;20029;-71
2022/10/10 01:01:58;;;;;;;3.15;1.60;;;15.00;72.50;;;;;;5033822;28;20032;-71
2022/10/10 01:04:31;;;;;;;4.05;1.58;;;14.90;72.60;;;;;;5033259;28;20388;-71
2022/10/10 01:06:59;;;;;;;4.75;1.80;;;14.80;72.60;;;;;;5033758;28;20033;-71
2022/10/10 01:09:26;;;;;;;5.75;2.00;;;14.80;72.80;;;;;;5033439;28;20057;-71
2022/10/10 01:12:21;;;;;;;4.95;1.83;;;14.80;72.90;;;;;;5033456;28;20033;-71
2022/10/10 01:15:04;;;;;;;3.83;1.42;;;14.70;73.10;;;;;;5033621;28;20385;-71
2022/10/10 01:17:43;;;;;;;4.47;1.67;;;14.60;73.50;;;;;;5033284;28;20392;-71
2022/10/10 01:20:22;;;;;;;3.47;1.60;;;14.60;73.60;;;;;;5033628;28;20068;-71
2022/10/10 01:23:12;;;;;;;3.05;1.42;;;14.60;73.50;;;;;;5033543;28;20029;-71
2022/10/10 01:26:05;;;;;;;3.45;1.67;;;14.70;73.40;;;;;;5033317;28;20080;-71
2022/10/10 01:28:57;;;;;;;3.22;1.40;;;14.70;73.30;;;;;;5033009;28;20045;-71
2022/10/10 01:31:25;;;;;;;5.85;1.73;;;14.70;73.30;;;;;;5033115;28;20029;-72
2022/10/10 01:34:09;;;;;;;3.85;1.50;;;14.70;73.40;;;;;;5033159;28;20049;-72
2022/10/10 01:36:55;;;;;;;3.40;1.42;;;14.70;73.40;;;;;;5033070;28;20517;-72
2022/10/10 01:39:47;;;;;;;5.68;1.85;;;14.80;73.50;;;;;;5033061;28;20034;-72
2022/10/10 01:42:21;;;;;;;3.47;1.67;;;14.70;73.50;;;;;;5033126;28;20028;-72
2022/10/10 01:44:47;;;;;;;4.57;1.73;;;14.60;73.70;;;;;;5033365;28;20025;-72
2022/10/10 01:47:13;;;;;;;4.03;1.80;;;14.70;73.90;;;;;;5033188;28;20125;-72
2022/10/10 01:49:42;;;;;;;4.55;2.00;;;14.70;73.70;;;;;;5032973;28;20477;-72
2022/10/10 01:52:14;;;;;;;5.15;1.55;;;14.70;73.80;;;;;;5043514;28;20112;-70
2022/10/10 01:55:06;;;;;;;4.35;1.20;;;14.60;73.80;;;;;;5032957;28;20025;-72
2022/10/10 01:57:57;;;;;;;4.00;1.93;;;14.60;73.90;;;;;;5033314;28;20041;-72
2022/10/10 02:00:23;;;;;;;3.88;1.77;;;14.60;73.90;;;;;;5032974;28;20253;-72
2022/10/10 02:02:56;;;;;;;5.20;1.77;;;14.60;74.00;;;;;;5033063;28;20488;-72
2022/10/10 02:05:49;;;;;;;6.35;1.95;;;14.60;74.20;;;;;;5032911;28;20064;-72
2022/10/10 02:08:26;;;;;;;5.68;2.10;;;14.50;74.10;;;;;;5030326;28;20128;-72
2022/10/10 02:10:55;;;;;;;5.70;2.05;;;14.50;74.90;;;;;;5033136;28;20029;-72
2022/10/10 02:13:26;;;;;;;4.63;2.47;;;14.40;74.50;;;;;;5033001;28;20029;-72
2022/10/10 02:15:56;;;;;;;3.95;1.83;;;14.30;74.60;;;;;;5033075;28;20025;-72
2022/10/10 02:18:26;;;;;;;3.78;1.75;;;14.30;74.90;;;;;;5032965;28;20064;-72
2022/10/10 02:20:53;;;;;;;6.75;2.30;;;14.30;75.00;;;;;;5032795;28;20044;-72
2022/10/10 02:23:20;;;;;;;2.88;1.42;;;14.30;75.20;;;;;;5032929;28;20030;-72
2022/10/10 02:25:54;;;;;;;3.67;2.05;;;14.30;75.20;;;;;;5032915;28;20410;-72
2022/10/10 02:28:32;;;;;;;9.07;1.98;;;14.30;75.10;;;;;;5032525;28;20049;-72
2022/10/10 02:31:01;;;;;;;3.38;1.42;;;14.30;75.20;;;;;;5032673;28;20036;-72
2022/10/10 02:33:47;;;;;;;5.95;1.95;;;14.30;75.20;;;;;;5032504;28;20025;-71
2022/10/10 02:36:14;;;;;;;4.03;1.77;;;14.30;75.30;;;;;;5032437;28;20026;-71
2022/10/10 02:38:42;;;;;;;4.68;1.85;;;14.30;75.30;;;;;;5036415;28;20033;-71
2022/10/10 02:41:09;;;;;;;3.00;1.75;;;14.30;75.40;;;;;;5036021;28;20025;-70
2022/10/10 02:43:36;;;;;;;4.60;1.90;;;14.30;75.40;;;;;;5035727;28;20377;-71
2022/10/10 02:46:05;;;;;;;4.05;1.88;;;14.30;75.60;;;;;;5036125;28;20033;-71
2022/10/10 02:48:34;;;;;;;3.13;1.38;;;14.20;76.30;;;;;;5038327;28;20025;-70
2022/10/10 02:51:00;;;;;;;6.00;1.90;;;14.20;75.80;;;;;;5036064;28;20029;-70
2022/10/10 02:53:31;;;;;;;5.07;1.92;;;14.20;75.90;;;;;;5035692;28;20095;-72
2022/10/10 02:55:57;;;;;;;3.60;2.03;;;14.30;75.90;;;;;;5036091;28;20026;-71
2022/10/10 02:58:22;;;;;;;4.20;1.75;;;14.20;75.90;;;;;;5035673;28;20030;-71
2022/10/10 03:00:48;;;;;;;4.95;2.03;;;14.20;76.10;;;;;;5035727;28;20026;-71
2022/10/10 03:03:13;;;;;;;5.60;1.88;;;14.20;76.20;;;;;;5035598;28;20017;-71
2022/10/10 03:05:39;;;;;;;6.28;2.00;;;14.30;75.90;;;;;;5035666;28;20071;-71
2022/10/10 03:08:05;;;;;;;5.45;2.15;;;14.30;75.80;;;;;;5035593;28;20026;-71
2022/10/10 03:10:30;;;;;;;6.00;2.63;;;14.40;75.90;;;;;;5035543;28;20033;-71
2022/10/10 03:12:59;;;;;;;5.38;2.15;;;14.30;75.90;;;;;;5035615;28;20036;-71
2022/10/10 03:15:24;;;;;;;3.42;2.15;;;14.30;76.00;;;;;;5035453;28;20022;-71
2022/10/10 03:17:50;;;;;;;5.20;2.20;;;14.20;76.10;;;;;;5035015;28;20036;-71
2022/10/10 03:20:15;;;;;;;5.60;2.00;;;14.10;76.40;;;;;;5035597;28;20083;-71
2022/10/10 03:22:41;;;;;;;6.40;2.10;;;13.90;76.70;;;;;;5035583;28;20117;-71
2022/10/10 03:25:06;;;;;;;4.13;2.30;;;13.90;77.10;;;;;;5035272;28;20025;-71
2022/10/10 03:27:32;;;;;;;4.22;1.88;;;13.90;77.00;;;;;;5035201;28;20053;-71
2022/10/10 03:29:59;;;;;;;2.53;1.73;;;14.00;77.00;;;;;;5035106;28;20123;-71
2022/10/10 03:32:24;;;;;;;6.20;2.58;;;14.00;77.00;;;;;;5035326;28;20049;-71
2022/10/10 03:34:50;;;;;;;5.88;2.03;;;14.10;77.00;;;;;;5035307;28;20474;-71
2022/10/10 03:37:15;;;;;;;4.25;1.90;;;14.10;77.10;;;;;;5034947;28;20037;-71
2022/10/10 03:39:41;;;;;;;4.30;2.10;;;14.20;77.00;;;;;;5035295;28;20025;-71
2022/10/10 03:42:07;;;;;;;5.03;2.00;;;14.10;76.90;;;;;;5035872;28;20026;-70
2022/10/10 03:44:33;;;;;;;7.75;2.10;;;14.00;77.20;;;;;;5038410;28;20025;-69
2022/10/10 03:46:58;;;;;;;5.13;2.22;;;14.00;77.30;;;;;;5035583;28;20029;-71
2022/10/10 03:49:24;;;;;;;4.80;1.85;;;13.90;77.20;;;;;;5034783;28;20029;-71
2022/10/10 03:51:49;;;;;;;6.22;2.58;;;14.00;77.40;;;;;;5034936;28;20109;-71
2022/10/10 03:54:15;;;;;;;5.53;2.35;;;14.00;77.30;;;;;;5034855;28;20021;-71
2022/10/10 03:56:41;;;;;;;4.65;2.30;;;14.00;77.50;;;;;;5034567;28;20029;-71
2022/10/10 03:59:06;;;;;;;4.28;2.30;;;14.00;77.50;;;;;;5034922;28;20041;-71
2022/10/10 04:01:33;;;;;;;4.18;2.42;;;14.00;77.50;;;;;;5034591;28;20026;-72
2022/10/10 04:03:59;;;;;;;3.05;1.90;;;14.00;77.50;;;;;;5034543;28;20033;-72
2022/10/10 04:06:24;;;;;;;3.53;1.80;;;14.00;77.70;;;;;;5034836;28;20122;-71
2022/10/10 04:08:50;;;;;;;3.90;2.20;;;14.00;77.70;;;;;;5034174;28;20022;-72
2022/10/10 04:11:16;;;;;;;4.70;2.30;;;14.00;77.70;;;;;;5034390;28;20113;-71
2022/10/10 04:13:41;;;;;;;4.53;2.15;;;14.00;77.60;;;;;;5034677;28;20065;-72
2022/10/10 04:16:07;;;;;;;4.25;1.88;;;14.00;77.80;;;;;;5034272;28;20026;-71
2022/10/10 04:18:32;;;;;;;5.53;2.40;;;14.00;77.60;;;;;;5034532;28;20083;-71
2022/10/10 04:21:04;;;;;;;3.47;2.28;;;13.90;77.70;;;;;;5034277;28;20044;-71
2022/10/10 04:23:30;;;;;;;4.10;2.05;;;14.00;77.80;;;;;;5034257;28;20029;-72
2022/10/10 04:25:55;;;;;;;4.32;2.40;;;13.90;78.00;;;;;;5034394;28;20032;-71
2022/10/10 04:28:21;;;;;;;3.75;2.30;;;13.90;78.00;;;;;;5033877;28;20496;-72
2022/10/10 04:30:47;;;;;;;4.97;2.55;;;14.00;78.00;;;;;;5034000;28;20033;-71
2022/10/10 04:33:12;;;;;;;4.50;2.28;;;13.90;78.30;;;;;;5033997;28;20159;-71
2022/10/10 04:35:38;;;;;;;7.35;2.22;;;13.90;78.40;;;;;;5034241;28;20381;-72
2022/10/10 04:38:05;;;;;;;3.63;1.90;;;13.90;78.40;;;;;;5033932;28;20473;-71
2022/10/10 04:40:31;;;;;;;3.08;2.30;;;13.90;78.40;;;;;;5034818;28;20025;-71
2022/10/10 04:42:56;;;;;;;4.43;1.85;;;13.90;78.50;;;;;;5034667;28;20034;-71
2022/10/10 04:45:25;;;;;;;5.28;2.47;;;13.90;78.40;;;;;;5033704;28;20488;-71
2022/10/10 04:47:54;;;;;;;4.97;2.25;;;14.00;78.50;;;;;;5034086;28;20354;-72
2022/10/10 04:50:21;;;;;;;6.55;3.05;;;13.90;78.40;;;;;;5033862;28;20031;-72
2022/10/10 04:52:46;;;;;;;5.13;2.33;;;13.90;78.30;;;;;;5033652;28;20022;-71
2022/10/10 04:55:12;;;;;;;6.35;2.65;;;14.00;78.40;;;;;;5033470;28;20028;-71
2022/10/10 04:57:38;;;;;;;3.83;1.92;;;14.00;78.30;;;;;;5033596;28;20067;-71
2022/10/10 05:00:05;;;;;;;5.63;2.42;;;14.00;78.20;;;;;;5033038;28;20030;-71
2022/10/10 05:02:31;;;;;;;4.63;2.17;;;14.00;78.20;;;;;;5033601;28;20421;-71
2022/10/10 05:04:57;;;;;;;4.30;2.25;;;14.00;78.10;;;;;;5033114;28;20041;-71
2022/10/10 05:07:22;;;;;;;3.83;2.42;;;14.00;78.20;;;;;;5033458;28;20025;-72
2022/10/10 05:09:48;;;;;;;5.18;2.53;;;14.00;78.80;;;;;;5033705;28;20030;-72
2022/10/10 05:12:14;;;;;;;5.78;2.30;;;14.00;78.30;;;;;;5033392;28;20478;-72
2022/10/10 05:14:39;;;;;;;4.20;2.20;;;14.00;78.40;;;;;;5033042;28;20117;-72
2022/10/10 05:17:05;;;;;;;5.38;2.10;;;14.00;78.40;;;;;;5033108;28;20128;-72
2022/10/10 05:19:30;;;;;;;4.70;2.30;;;14.00;78.40;;;;;;5033497;28;20022;-72
2022/10/10 05:21:56;;;;;;;4.30;2.72;;;14.10;78.30;;;;;;5033129;28;20056;-71
2022/10/10 05:24:22;;;;;;;4.28;1.95;;;14.10;78.20;;;;;;5033080;28;20029;-72
2022/10/10 05:26:47;;;;;;;3.92;2.15;;;14.10;78.40;;;;;;5032932;28;20401;-71
2022/10/10 05:29:13;;;;;;;3.72;2.20;;;14.10;78.40;;;;;;5033091;28;20025;-71
2022/10/10 05:31:38;;;;;;;5.97;2.42;;;14.20;78.50;;;;;;5033029;28;20053;-71
2022/10/10 05:34:11;;;;;;;5.50;2.80;;;14.20;78.30;;;;;;5033147;28;20025;-71
2022/10/10 05:36:36;;;;;;;4.55;2.33;;;14.20;78.30;;;;;;5034253;28;20052;-71
2022/10/10 05:39:02;;;;;;;4.70;2.47;;;14.20;78.50;;;;;;5033610;28;20484;-71
2022/10/10 05:41:27;;;;;;;8.30;2.70;;;14.20;78.40;;;;;;5032988;28;20068;-71
2022/10/10 05:43:53;;;;;;;6.72;2.40;;;14.20;78.40;;;;;;5032867;28;20060;-71
2022/10/10 05:46:20;;;;;;;5.20;2.38;;;14.20;78.30;;;;;;5032887;28;20109;-72
2022/10/10 05:48:46;;;;;;;8.63;2.47;;;14.20;78.30;;;;;;5033127;28;20052;-71
2022/10/10 05:51:12;;;;;;;6.03;2.63;;;14.20;78.30;;;;;;5032772;28;20453;-72
2022/10/10 05:53:37;;;;;;;5.65;2.85;;;14.20;78.40;;;;;;5033008;28;20034;-71
2022/10/10 05:56:03;;;;;;;3.67;2.20;;;14.30;78.30;;;;;;5031976;28;20022;-71
2022/10/10 05:58:29;;;;;;;3.45;2.00;;;14.20;78.30;;;;;;5030662;28;20481;-73
2022/10/10 06:01:02;;;;;;;5.18;2.40;;;14.30;78.50;;;;;;5030870;28;20093;-68
2022/10/10 06:03:28;;;;;;;6.47;2.50;;;14.30;78.50;;;;;;5031869;28;20488;-69
2022/10/10 06:05:53;;;;;;;5.50;2.97;;;14.30;78.40;;;;;;5031965;28;20026;-70
2022/10/10 06:08:19;;;;;;;7.22;3.00;;;14.30;78.40;;;;;;5032456;28;20104;-68
2022/10/10 06:10:45;;;;;;;4.47;2.08;;;14.30;78.40;;;;;;5032671;28;20380;-68
2022/10/10 06:13:13;;;;;;;6.40;2.90;;;14.30;78.50;;;;;;5034392;28;20492;-68
2022/10/10 06:15:39;;;;;;;5.68;2.63;;;14.30;78.50;;;;;;5036084;28;20121;-68
2022/10/10 06:18:05;;;;;;;7.18;2.35;;;14.20;78.60;;;;;;5036661;28;20108;-71
2022/10/10 06:20:34;;;;;;;6.35;3.08;;;14.20;78.70;;;;;;5046529;28;20022;-71
2022/10/10 06:22:59;;;;;;;7.88;3.13;;;14.10;79.20;;;;;;5036180;28;20477;-71
2022/10/10 06:25:25;;;;;;;7.00;3.08;;;14.00;79.30;;;;;;5036137;28;20053;-70
2022/10/10 06:27:51;;;;;;;7.32;3.33;;;14.00;79.50;;;;;;5041222;28;20400;-71
2022/10/10 06:30:16;;;;;;;7.88;2.90;;;13.90;79.60;;;;;;5042053;28;20018;-71
2022/10/10 06:32:42;;;;;;;9.95;3.40;;;13.90;80.10;;;;;;5037688;28;20049;-69
2022/10/10 06:35:11;;;;;;;5.72;2.50;;;13.80;80.30;;;;;;5040158;28;20362;-70
2022/10/10 06:37:36;;;;;;;3.75;2.22;;;13.90;80.40;;;;;;5035425;28;20041;-70
2022/10/10 06:40:02;;;;;;;7.47;2.70;;;14.00;80.90;;;;;;5034807;28;20026;-70
2022/10/10 06:42:28;;;;;;;7.97;2.75;;;14.10;80.40;;;;;;5034916;28;20031;-70
2022/10/10 06:44:54;;;;;;;6.90;2.72;;;14.10;80.30;;;;;;5034346;28;20021;-70
2022/10/10 06:47:19;;;;;;;4.78;2.15;;;14.20;80.40;;;;;;5034914;28;20029;-70
2022/10/10 06:49:45;;;;;;;6.50;3.00;;;14.20;80.40;;;;;;5035157;28;20025;-70
2022/10/10 06:52:10;;;;;;;4.68;3.17;;;14.20;80.60;;;;;;5036017;28;20021;-70
2022/10/10 06:54:36;;;;;;;5.50;3.10;;;14.10;81.00;;;;;;5036328;28;20544;-70
2022/10/10 06:57:01;;;;;;;6.00;2.90;;;14.00;81.40;;;;;;5035975;28;20389;-70
2022/10/10 06:59:27;;;;;;;6.30;3.40;;;14.00;81.40;;;;;;5035760;28;20389;-70
2022/10/10 07:01:52;;;;;;;7.93;3.45;;;14.00;81.80;;;;;;5035554;28;20104;-70
2022/10/10 07:04:18;;;;;;;6.47;2.92;;;13.90;82.20;;;;;;5035404;28;20029;-71
2022/10/10 07:06:44;;;;;;;9.40;3.65;;;13.80;82.40;;;;;;5033849;28;20025;-71
2022/10/10 07:09:09;;;;;;;9.25;3.67;;;13.90;82.50;;;;;;5034321;28;20075;-70
2022/10/10 07:11:35;;;;;;;7.13;3.45;;;13.90;82.70;;;;;;5034492;28;20366;-71
2022/10/10 07:14:00;;;;;;;6.20;3.13;;;14.00;82.80;;;;;;5033131;28;20572;-71
2022/10/10 07:16:33;;;;;;;6.88;3.08;;;14.10;82.80;;;;;;5034975;28;20048;-72
2022/10/10 07:19:02;;;;;;;4.93;2.97;;;14.20;82.90;;;;;;5045547;28;20040;-71
2022/10/10 07:21:27;;;;;;;10.93;4.20;;;14.30;82.80;;;;;;5048997;28;20140;-71
2022/10/10 07:23:53;;;;;;;4.70;2.65;;;14.40;82.70;;;;;;5038563;28;20021;-71
2022/10/10 07:26:21;;;;;;;7.65;3.15;;;14.50;82.30;;;;;;5034872;28;20029;-71
2022/10/10 07:28:47;;;;;;;6.78;3.00;;;14.60;81.90;;;;;;5036206;28;20030;-69
2022/10/10 07:31:14;;;;;;;6.60;3.65;;;14.70;81.80;;;;;;5049709;28;20083;-70
2022/10/10 07:33:42;;;;;;;7.43;3.42;;;14.80;81.70;;;;;;5034534;28;20025;-69
2022/10/10 07:36:08;;;;;;;6.03;3.15;;;14.90;81.70;;;;;;5040997;28;20112;-72
2022/10/10 07:38:35;;;;;;;11.32;4.22;;;14.90;81.50;;;;;;5054069;28;20120;-71
2022/10/10 07:41:08;;;;;;;7.45;3.40;;;14.90;81.50;;;;;;5035285;28;20045;-72
2022/10/10 07:43:34;;;;;;;8.20;3.15;;;14.90;81.60;;;;;;5034815;28;20172;-72
2022/10/10 07:46:00;;;;;;;7.40;3.58;;;14.80;81.80;;;;;;5034410;28;20045;-71
2022/10/10 07:48:26;;;;;;;5.68;3.35;;;14.70;83.20;;;;;;5034368;28;20111;-71
2022/10/10 07:50:52;;;;;;;8.15;3.40;;;14.70;83.40;;;;;;5030192;28;20051;-71
2022/10/10 07:53:18;;;;;;;8.10;3.25;;;14.60;83.40;;;;;;5034765;28;20053;-70
2022/10/10 07:55:43;;;;;;;8.10;3.50;;;14.60;83.60;;;;;;5041562;28;20030;-69
2022/10/10 07:58:12;;;;;;;8.60;4.65;;;14.60;83.90;;;;;;5033831;28;20045;-72
2022/10/10 08:00:42;;;;;;;6.18;4.22;;;14.60;84.50;;;;;;5023923;28;20053;-72
2022/10/10 08:03:08;;;;;;;7.50;4.20;;;14.50;84.70;;;;;;5035145;28;20033;-71
2022/10/10 08:05:41;;;;;;;6.22;3.67;;;14.60;85.00;;;;;;5034673;28;20032;-72
2022/10/10 08:08:08;;;;;;;11.65;3.53;;;14.60;85.20;;;;;;5034960;28;20057;-72
2022/10/10 08:10:34;;;;;;;7.13;3.90;;;14.60;85.20;;;;;;5034310;28;20030;-72
2022/10/10 08:12:59;;;;;;;6.55;3.90;;;14.60;85.50;;;;;;5034350;28;20037;-72
2022/10/10 08:15:25;;;;;;;5.78;3.22;;;14.60;86.10;;;;;;5034440;28;20021;-72
2022/10/10 08:17:50;;;;;;;9.07;3.90;;;14.60;86.00;;;;;;5034469;28;20044;-72
2022/10/10 08:20:16;;;;;;;8.15;3.90;;;14.60;86.40;;;;;;5034080;28;20021;-72
2022/10/10 08:22:41;;;;;;;6.47;3.70;;;14.70;85.90;;;;;;5034377;28;20065;-72
2022/10/10 08:25:07;;;;;;;8.13;3.83;;;14.60;85.80;;;;;;5034658;28;20029;-70
2022/10/10 08:27:33;;;;;;;7.50;3.85;;;14.70;86.50;;;;;;5038563;28;20440;-71
2022/10/10 08:29:59;;;;;;;10.80;3.67;;;14.60;86.60;;;;;;5034326;28;20022;-71
2022/10/10 08:32:24;;;;;;;8.85;3.55;;;14.70;87.40;;;;;;5033909;28;20025;-71
2022/10/10 08:34:50;;;;;;;7.35;4.15;;;14.70;87.00;;;;;;5033259;28;20018;-71
2022/10/10 08:37:15;;;;;;;8.60;4.07;;;14.70;87.00;;;;;;5034027;28;20033;-72
2022/10/10 08:39:41;;;;;;;6.20;3.58;;;14.80;87.00;;;;;;5034184;28;20022;-71
2022/10/10 08:42:20;;;;;;;6.25;3.90;;;14.80;87.30;;;;;;5033776;28;20555;-71
2022/10/10 08:44:50;;;;;;;8.48;3.47;;;14.80;87.50;;;;;;5033668;28;20559;-72
2022/10/10 08:47:21;;;;;;;7.35;3.55;;;14.90;87.40;;;;;;5034037;28;20021;-72
2022/10/10 08:49:58;;;;;;;10.00;4.25;;;14.90;88.00;;;;;;5033832;28;20021;-72
2022/10/10 08:52:38;;;;;;;8.95;4.60;;;15.00;88.70;;;;;;5026256;28;20409;-72
2022/10/10 08:55:13;;;;;;;10.18;4.25;;;15.20;88.30;;;;;;5037783;28;20037;-71
2022/10/10 08:57:54;;;;;;;8.02;4.18;;;15.20;88.40;;;;;;5042330;28;20041;-69
2022/10/10 09:00:22;;;;;;;5.93;3.80;;;15.20;88.80;;;;;;5046529;28;20025;-72
2022/10/10 09:02:59;;;;;;;10.82;4.30;;;15.30;88.30;;;;;;5031920;28;20057;-71
2022/10/10 09:05:40;;;;;;;10.10;4.38;;;15.40;88.50;;;;;;5033288;28;20171;-72
2022/10/10 09:08:25;;;;;;;7.63;4.40;;;15.50;88.60;;;;;;5013409;28;20466;-71
2022/10/10 09:10:56;;;;;;;7.60;3.88;;;15.60;87.70;;;;;;5013820;28;20033;-72
2022/10/10 09:13:30;;;;;;;7.63;4.15;;;15.70;87.40;;;;;;5013748;28;20026;-71
2022/10/10 09:16:02;;;;;;;8.45;4.22;;;15.80;87.30;;;;;;5013596;28;20069;-72
2022/10/10 09:18:53;;;;;;;8.70;4.50;;;15.90;87.50;;;;;;5024569;28;20044;-72
2022/10/10 09:21:32;;;;;;;11.88;3.72;;;16.00;87.00;;;;;;5033889;28;20108;-69
2022/10/10 09:24:23;;;;;;;10.35;4.78;;;16.00;86.70;;;;;;5034361;28;20079;-71
2022/10/10 09:26:59;;;;;;;10.65;3.78;;;16.20;87.60;;;;;;5033264;28;20053;-71
2022/10/10 09:29:31;;;;;;;8.70;3.10;;;16.10;87.00;;;;;;5033444;28;20033;-71
2022/10/10 09:32:00;;;;;;;7.53;3.67;;;16.10;86.80;;;;;;5033465;28;20040;-71
2022/10/10 09:34:25;;;;;;;10.52;4.28;;;16.10;86.70;;;;;;5033319;28;20034;-72
2022/10/10 09:36:51;;;;;;;7.93;3.63;;;16.20;87.10;;;;;;5032964;28;20176;-72
2022/10/10 09:39:22;;;;;;;9.90;4.38;;;16.30;87.10;;;;;;5032996;28;20607;-71
2022/10/10 09:41:58;;;;;;;8.85;3.85;;;16.40;86.80;;;;;;5033391;28;20401;-72
2022/10/10 09:44:24;;;;;;;9.80;4.47;;;16.40;86.40;;;;;;5033837;28;20025;-72
2022/10/10 09:46:51;;;;;;;11.15;4.15;;;16.40;86.60;;;;;;5035500;28;20028;-70
2022/10/10 09:49:19;;;;;;;15.88;4.10;;;16.40;86.70;;;;;;5037314;28;20026;-70
2022/10/10 09:51:45;;;;;;;9.80;3.95;;;16.40;86.60;;;;;;5036930;28;20480;-69
2022/10/10 09:54:14;;;;;;;8.18;3.97;;;16.40;86.50;;;;;;5043001;28;20029;-72
2022/10/10 09:57:01;;;;;;;6.45;3.90;;;16.40;86.80;;;;;;5041872;28;20407;-72
2022/10/10 09:59:41;;;;;;;9.60;3.90;;;16.40;86.70;;;;;;5046195;28;20090;-70
2022/10/10 10:02:18;;;;;;;10.43;4.40;;;16.30;86.50;;;;;;5036729;28;20048;-70
2022/10/10 10:04:45;;;;;;;6.35;3.50;;;16.40;87.00;;;;;;5036451;28;20479;-70
2022/10/10 10:07:31;;;;;;;9.90;4.22;;;16.40;87.10;;;;;;5036831;28;20025;-70
2022/10/10 10:09:58;;;;;;;11.57;4.53;;;16.40;87.10;;;;;;5036715;28;20385;-70
2022/10/10 10:12:29;;;;;;;10.50;4.32;;;16.40;87.40;;;;;;5036411;28;20022;-70
2022/10/10 10:15:05;;;;;;;8.15;3.78;;;16.50;87.20;;;;;;5036601;28;20358;-70
2022/10/10 10:17:31;;;;;;;9.23;4.05;;;16.40;87.10;;;;;;5036155;28;20033;-71
2022/10/10 10:19:57;;;;;;;8.90;4.18;;;16.50;87.60;;;;;;5043059;28;20036;-72
2022/10/10 10:22:37;;;;;;;8.00;4.00;;;16.60;88.30;;;;;;5036564;28;20104;-70
2022/10/10 10:25:34;;;;;;;8.45;4.60;;;16.70;87.70;;;;;;5035822;28;20537;-70
2022/10/10 10:28:20;;;;;;;8.05;3.92;;;16.70;87.60;;;;;;5035937;28;20050;-70
2022/10/10 10:30:46;;;;;;;10.80;4.30;;;16.60;87.50;;;;;;5036089;28;20021;-70
2022/10/10 10:33:32;;;;;;;11.75;4.40;;;16.60;87.70;;;;;;5035703;28;20114;-70
2022/10/10 10:36:32;;;;;;;7.95;4.00;;;16.60;87.90;;;;;;5046972;28;20051;-70
2022/10/10 10:39:28;;;;;;;8.68;4.05;;;16.50;88.40;;;;;;5051004;28;20079;-70
2022/10/10 10:42:00;;;;;;;10.45;4.00;;;16.50;88.60;;;;;;5042393;28;20021;-70
2022/10/10 10:44:43;;;;;;;10.00;4.22;;;16.50;88.90;;;;;;5047754;28;20084;-70
2022/10/10 10:47:20;;;;;;;9.95;4.65;;;16.60;89.30;;;;;;5044974;28;20030;-69
2022/10/10 10:49:59;;;;;;;8.70;4.13;;;16.60;89.30;;;;;;5036829;28;20381;-69
2022/10/10 10:52:59;;;;;;;7.03;4.53;;;16.60;89.30;;;;;;5043550;28;20033;-69
2022/10/10 10:55:34;;;;;;;9.38;4.18;;;16.60;89.70;;;;;;5052414;28;20033;-70
2022/10/10 10:58:28;;;;;;;7.85;4.43;;;16.50;90.00;;;;;;5043170;28;20112;-72
2022/10/10 11:01:15;;;;;;;12.75;4.78;;;16.60;90.00;;;;;;5053110;28;20028;-72
2022/10/10 11:03:49;;;;;;;9.63;4.53;;;16.70;89.90;;;;;;5037808;28;20072;-72
2022/10/10 11:06:40;;;;;;;9.18;4.05;;;16.70;89.90;;;;;;5046103;28;20107;-72
2022/10/10 11:09:15;;;;;;;9.85;5.25;;;16.80;89.90;;;;;;5027549;28;20049;-72
2022/10/10 11:12:02;;;;;;;8.35;3.72;;;16.90;89.90;;;;;;5044304;28;20043;-72
2022/10/10 11:14:43;;;;;;;12.68;5.03;;;17.00;90.00;;;;;;5043817;28;20032;-70
2022/10/10 11:17:18;;;;;;;8.85;4.03;;;17.20;89.60;;;;;;5049698;28;20488;-71
2022/10/10 11:19:55;;;;;;;10.57;3.88;;;17.30;89.10;;;;;;5043095;28;20439;-72
2022/10/10 11:22:45;;;;;;;10.70;4.47;;;17.30;88.90;;;;;;5045817;28;20397;-71
2022/10/10 11:25:21;;;;;;;6.85;4.40;;;17.50;88.90;;;;;;5051089;28;20480;-71
2022/10/10 11:27:56;;;;;;;7.88;4.10;;;17.70;88.80;;;;;;5044563;28;20049;-71
2022/10/10 11:30:29;;;;;;;12.63;4.40;;;17.90;88.20;;;;;;5035394;28;20056;-71
2022/10/10 11:33:05;;;;;;;8.43;3.78;;;18.00;86.90;;;;;;5039053;28;20108;-71
2022/10/10 11:35:45;;;;;;;8.52;3.85;;;18.00;86.60;;;;;;5047754;28;20021;-71
2022/10/10 11:38:18;;;;;;;8.52;4.25;;;18.00;86.30;;;;;;5042998;28;20059;-72
2022/10/10 11:41:27;;;;;;;9.38;4.45;;;18.00;86.30;;;;;;5034605;28;20473;-71
2022/10/10 11:44:18;;;;;;;9.98;3.47;;;18.00;86.50;;;;;;5035851;28;20037;-70
2022/10/10 11:46:55;;;;;;;11.55;4.50;;;18.00;87.00;;;;;;5042134;28;20473;-71
2022/10/10 11:49:37;;;;;;;8.63;3.85;;;17.90;87.20;;;;;;5039988;28;20417;-71
2022/10/10 11:52:12;;;;;;;9.13;3.90;;;18.00;87.70;;;;;;5035123;28;20017;-71
2022/10/10 11:54:40;;;;;;;8.98;4.32;;;18.00;87.90;;;;;;5035572;28;20477;-72
2022/10/10 11:57:27;;;;;;;9.55;3.90;;;18.00;87.90;;;;;;5040599;28;20040;-71
2022/10/10 12:00:04;;;;;;;9.20;3.60;;;17.90;87.80;;;;;;5041306;28;20036;-71
2022/10/10 12:02:35;;;;;;;8.68;3.67;;;17.90;88.00;;;;;;5042734;28;20025;-72
2022/10/10 12:05:04;;;;;;;9.07;3.63;;;17.90;88.30;;;;;;5047944;28;20468;-72
2022/10/10 12:07:44;;;;;;;10.77;4.43;;;17.90;88.50;;;;;;5047109;28;20030;-71
2022/10/10 12:10:38;;;;;;;10.98;4.10;;;18.00;88.70;;;;;;5046941;28;20074;-70
2022/10/10 12:13:55;;;;;;;11.07;3.95;;;18.10;88.50;;;;;;5048715;28;20037;-72
2022/10/10 12:16:24;;;;;;;8.68;4.38;;;18.20;88.40;;;;;;5018003;28;20029;-72
2022/10/10 12:18:58;;;;;;;8.38;3.45;;;18.30;88.70;;;;;;5025124;28;20034;-72
2022/10/10 12:21:25;;;;;;;11.35;3.58;;;18.40;88.50;;;;;;5038369;28;20029;-72
2022/10/10 12:24:10;;;;;;;11.60;4.15;;;18.60;88.70;;;;;;5039477;28;20087;-72
2022/10/10 12:26:54;;;;;;;10.07;3.88;;;18.70;88.30;;;;;;5033743;28;20025;-72
2022/10/10 12:29:38;;;;;;;10.13;4.03;;;18.50;87.70;;;;;;5043944;28;20045;-72
2022/10/10 12:32:12;;;;;;;9.32;3.60;;;18.40;88.10;;;;;;5036868;28;20028;-72
2022/10/10 12:34:42;;;;;;;7.55;3.40;;;18.40;88.50;;;;;;5047526;28;20057;-72
2022/10/10 12:37:25;;;;;;;10.35;3.78;;;18.30;89.00;;;;;;5038270;28;20485;-71
2022/10/10 12:40:06;;;;;;;12.70;3.75;;;18.20;89.50;;;;;;5044227;28;20102;-72
2022/10/10 12:42:37;;;;;;;11.35;3.78;;;18.10;89.80;;;;;;5046984;28;20492;-72
2022/10/10 12:45:29;;;;;;;11.00;4.18;;;18.00;90.00;;;;;;5044252;28;20526;-72
2022/10/10 12:48:17;;;;;;;16.50;4.93;;;18.00;90.10;;;;;;5037424;28;20136;-72
2022/10/10 12:50:52;;;;;;;14.70;3.88;;;18.00;90.30;;;;;;5032352;28;20087;-72
2022/10/10 12:53:19;;;;;;;13.57;3.92;;;18.00;90.60;;;;;;5032519;28;20469;-72
2022/10/10 12:55:50;;;;;;;9.50;3.55;;;17.90;90.60;;;;;;5033716;28;20083;-72
2022/10/10 12:58:21;;;;;;;9.40;3.80;;;17.90;90.70;;;;;;5032973;28;20099;-72
2022/10/10 13:00:47;;;;;;;11.32;4.20;;;17.90;91.00;;;;;;5052066;28;20029;-71
2022/10/10 13:03:41;;;;;;;12.57;4.13;;;17.80;91.20;;;;;;5053769;28;20078;-72
2022/10/10 13:06:29;;;;;;;10.48;3.90;;;17.70;91.60;;;;;;5037577;28;20056;-70